sensor_id;sensor_type;location;lat;lon;timestamp;noise_LAeq;noise_LA_min;noise_LA_max;noise_LA01;noise_LA95
64036;Laerm;50280;49.864;8.638;2022-11-25T00:01:13;44.34;40.45;56.00;;
64036;Laerm;50280;49.864;8.638;2022-11-25T00:03:48;44.16;39.92;56.71;;
64036;Laerm;50280;49.864;8.638;2022-11-25T00:06:23;43.75;39.75;56.10;;
64036;Laerm;50280;49.864;8.638;2022-11-25T00:08:59;43.13;40.32;56.41;;
64036;Laerm;50280;49.864;8.638;2022-11-25T00:11:34;43.30;39.21;55.32;;
64036;Laerm;50280;49.864;8.638;2022-11-25T00:14:12;44.56;40.18;55.66;;
64036;Laerm;50280;49.864;8.638;2022-11-25T00:16:46;44.05;40.33;55.05;;
64036;Laerm;50280;49.864;8.638;2022-11-25T00:19:18;42.87;39.49;56.08;;
64036;Laerm;50280;49.864;8.638;2022-11-25T00:21:50;42.76;38.99;54.14;;
64036;Laerm;50280;49.864;8.638;2022-11-25T00:24:23;43.40;39.15;55.53;;
64036;Laerm;50280;49.864;8.638;2022-11-25T00:26:55;42.46;38.11;55.27;;
64036;Laerm;50280;49.864;8.638;2022-11-25T00:29:29;41.94;37.75;55.93;;
64036;Laerm;50280;49.864;8.638;2022-11-25T00:32:02;41.70;38.53;55.92;;
64036;Laerm;50280;49.864;8.638;2022-11-25T00:34:34;41.46;38.17;55.16;;
64036;Laerm;50280;49.864;8.638;2022-11-25T00:37:07;41.23;37.34;56.69;;
64036;Laerm;50280;49.864;8.638;2022-11-25T00:39:39;41.15;37.99;55.48;;
64036;Laerm;50280;49.864;8.638;2022-11-25T00:42:11;40.66;37.47;56.08;;
64036;Laerm;50280;49.864;8.638;2022-11-25T00:44:45;40.92;37.33;54.44;;
64036;Laerm;50280;49.864;8.638;2022-11-25T00:47:20;42.23;38.57;57.51;;
64036;Laerm;50280;49.864;8.638;2022-11-25T00:49:53;43.51;39.05;55.12;;
64036;Laerm;50280;49.864;8.638;2022-11-25T00:52:26;43.04;38.88;55.13;;
64036;Laerm;50280;49.864;8.638;2022-11-25T00:54:58;44.44;38.63;55.07;;
64036;Laerm;50280;49.864;8.638;2022-11-25T00:57:30;45.02;41.10;55.08;;
64036;Laerm;50280;49.864;8.638;2022-11-25T01:00:08;45.20;40.57;55.00;;
64036;Laerm;50280;49.864;8.638;2022-11-25T01:02:42;43.69;40.24;56.16;;
64036;Laerm;50280;49.864;8.638;2022-11-25T01:05:15;44.59;40.96;54.67;;
64036;Laerm;50280;49.864;8.638;2022-11-25T01:07:47;43.96;41.10;53.57;;
64036;Laerm;50280;49.864;8.638;2022-11-25T01:10:19;44.34;41.08;56.26;;
64036;Laerm;50280;49.864;8.638;2022-11-25T01:12:52;45.71;42.20;56.03;;
64036;Laerm;50280;49.864;8.638;2022-11-25T01:15:26;44.39;41.08;55.59;;
64036;Laerm;50280;49.864;8.638;2022-11-25T01:17:58;44.30;39.55;56.03;;
64036;Laerm;50280;49.864;8.638;2022-11-25T01:20:30;44.32;39.05;55.09;;
64036;Laerm;50280;49.864;8.638;2022-11-25T01:23:03;44.87;39.85;56.74;;
64036;Laerm;50280;49.864;8.638;2022-11-25T01:25:35;43.63;39.74;54.97;;
64036;Laerm;50280;49.864;8.638;2022-11-25T01:28:08;42.76;39.42;54.73;;
64036;Laerm;50280;49.864;8.638;2022-11-25T01:30:42;41.28;38.03;55.15;;
64036;Laerm;50280;49.864;8.638;2022-11-25T01:33:14;43.33;38.63;55.76;;
64036;Laerm;50280;49.864;8.638;2022-11-25T01:35:46;43.83;38.55;53.47;;
64036;Laerm;50280;49.864;8.638;2022-11-25T01:38:19;43.93;39.77;56.91;;
64036;Laerm;50280;49.864;8.638;2022-11-25T01:40:51;44.30;40.56;54.66;;
64036;Laerm;50280;49.864;8.638;2022-11-25T01:43:24;43.96;39.51;55.57;;
64036;Laerm;50280;49.864;8.638;2022-11-25T01:46:06;42.22;38.47;54.03;;
64036;Laerm;50280;49.864;8.638;2022-11-25T01:48:56;42.63;38.38;55.58;;
64036;Laerm;50280;49.864;8.638;2022-11-25T01:51:40;43.13;38.25;54.99;;
64036;Laerm;50280;49.864;8.638;2022-11-25T01:54:20;42.56;38.15;55.72;;
64036;Laerm;50280;49.864;8.638;2022-11-25T01:57:01;42.17;38.26;54.21;;
64036;Laerm;50280;49.864;8.638;2022-11-25T01:59:41;43.29;38.75;54.95;;
64036;Laerm;50280;49.864;8.638;2022-11-25T02:02:20;43.74;39.58;54.44;;
64036;Laerm;50280;49.864;8.638;2022-11-25T02:04:53;46.22;41.37;56.03;;
64036;Laerm;50280;49.864;8.638;2022-11-25T02:07:31;44.22;40.38;55.04;;
64036;Laerm;50280;49.864;8.638;2022-11-25T02:10:14;43.17;38.99;56.03;;
64036;Laerm;50280;49.864;8.638;2022-11-25T02:12:51;45.22;40.05;54.95;;
64036;Laerm;50280;49.864;8.638;2022-11-25T02:15:25;44.33;40.24;54.04;;
64036;Laerm;50280;49.864;8.638;2022-11-25T02:18:02;45.54;40.00;54.28;;
64036;Laerm;50280;49.864;8.638;2022-11-25T02:20:38;44.68;40.19;55.28;;
64036;Laerm;50280;49.864;8.638;2022-11-25T02:23:18;45.47;41.83;54.91;;
64036;Laerm;50280;49.864;8.638;2022-11-25T02:26:03;46.41;42.59;55.12;;
64036;Laerm;50280;49.864;8.638;2022-11-25T02:28:38;46.66;43.05;54.86;;
64036;Laerm;50280;49.864;8.638;2022-11-25T02:31:10;47.73;44.23;56.00;;
64036;Laerm;50280;49.864;8.638;2022-11-25T02:33:43;47.20;43.79;55.48;;
64036;Laerm;50280;49.864;8.638;2022-11-25T02:36:19;46.50;43.02;55.76;;
64036;Laerm;50280;49.864;8.638;2022-11-25T02:38:56;46.12;42.73;54.84;;
64036;Laerm;50280;49.864;8.638;2022-11-25T02:41:35;47.08;43.24;55.15;;
64036;Laerm;50280;49.864;8.638;2022-11-25T02:44:11;46.32;41.47;55.87;;
64036;Laerm;50280;49.864;8.638;2022-11-25T02:46:44;46.22;41.54;55.31;;
64036;Laerm;50280;49.864;8.638;2022-11-25T02:49:16;45.57;42.12;56.26;;
64036;Laerm;50280;49.864;8.638;2022-11-25T02:51:49;45.51;41.83;54.65;;
64036;Laerm;50280;49.864;8.638;2022-11-25T02:54:21;45.77;42.02;55.55;;
64036;Laerm;50280;49.864;8.638;2022-11-25T02:56:55;46.19;42.21;54.30;;
64036;Laerm;50280;49.864;8.638;2022-11-25T02:59:27;46.04;41.57;54.69;;
64036;Laerm;50280;49.864;8.638;2022-11-25T03:01:59;45.59;41.58;55.59;;
64036;Laerm;50280;49.864;8.638;2022-11-25T03:04:32;45.62;41.78;53.58;;
64036;Laerm;50280;49.864;8.638;2022-11-25T03:07:04;45.48;41.66;55.35;;
64036;Laerm;50280;49.864;8.638;2022-11-25T03:09:37;45.78;40.81;55.22;;
64036;Laerm;50280;49.864;8.638;2022-11-25T03:12:10;46.56;43.10;55.59;;
64036;Laerm;50280;49.864;8.638;2022-11-25T03:14:43;45.75;40.52;53.87;;
64036;Laerm;50280;49.864;8.638;2022-11-25T03:17:15;45.90;41.28;54.95;;
64036;Laerm;50280;49.864;8.638;2022-11-25T03:19:48;46.16;42.46;56.03;;
64036;Laerm;50280;49.864;8.638;2022-11-25T03:22:21;45.12;40.55;56.46;;
64036;Laerm;50280;49.864;8.638;2022-11-25T03:24:53;46.44;41.90;56.72;;
64036;Laerm;50280;49.864;8.638;2022-11-25T03:27:27;43.60;39.90;53.71;;
64036;Laerm;50280;49.864;8.638;2022-11-25T03:30:00;43.60;40.10;55.59;;
64036;Laerm;50280;49.864;8.638;2022-11-25T03:32:32;45.33;41.27;54.63;;
64036;Laerm;50280;49.864;8.638;2022-11-25T03:35:06;45.10;41.08;55.91;;
64036;Laerm;50280;49.864;8.638;2022-11-25T03:37:39;45.65;41.81;55.41;;
64036;Laerm;50280;49.864;8.638;2022-11-25T03:40:14;46.26;42.51;55.41;;
64036;Laerm;50280;49.864;8.638;2022-11-25T03:42:48;47.91;42.45;56.09;;
64036;Laerm;50280;49.864;8.638;2022-11-25T03:45:21;45.88;41.84;55.44;;
64036;Laerm;50280;49.864;8.638;2022-11-25T03:47:53;45.97;42.34;55.36;;
64036;Laerm;50280;49.864;8.638;2022-11-25T03:50:26;45.65;42.03;54.34;;
64036;Laerm;50280;49.864;8.638;2022-11-25T03:52:58;45.84;42.59;55.80;;
64036;Laerm;50280;49.864;8.638;2022-11-25T03:55:30;46.39;43.11;54.74;;
64036;Laerm;50280;49.864;8.638;2022-11-25T03:58:04;46.68;43.19;53.00;;
64036;Laerm;50280;49.864;8.638;2022-11-25T04:00:37;46.63;43.03;56.40;;
64036;Laerm;50280;49.864;8.638;2022-11-25T04:03:09;48.67;44.76;53.86;;
64036;Laerm;50280;49.864;8.638;2022-11-25T04:05:42;49.50;44.32;79.93;;
64036;Laerm;50280;49.864;8.638;2022-11-25T04:08:14;47.64;44.31;57.04;;
64036;Laerm;50280;49.864;8.638;2022-11-25T04:10:48;47.49;43.76;54.16;;
64036;Laerm;50280;49.864;8.638;2022-11-25T04:13:22;47.97;43.84;54.98;;
64036;Laerm;50280;49.864;8.638;2022-11-25T04:15:55;48.80;45.44;53.54;;
64036;Laerm;50280;49.864;8.638;2022-11-25T04:18:28;49.40;45.52;66.18;;
64036;Laerm;50280;49.864;8.638;2022-11-25T04:21:01;49.85;46.47;56.14;;
64036;Laerm;50280;49.864;8.638;2022-11-25T04:23:33;50.08;46.87;57.30;;
64036;Laerm;50280;49.864;8.638;2022-11-25T04:26:05;49.41;45.38;56.46;;
64036;Laerm;50280;49.864;8.638;2022-11-25T04:28:39;48.41;44.69;55.39;;
64036;Laerm;50280;49.864;8.638;2022-11-25T04:31:12;47.57;44.98;55.14;;
64036;Laerm;50280;49.864;8.638;2022-11-25T04:33:44;47.59;44.06;56.50;;
64036;Laerm;50280;49.864;8.638;2022-11-25T04:36:17;48.49;45.18;55.57;;
64036;Laerm;50280;49.864;8.638;2022-11-25T04:38:50;49.47;45.71;57.66;;
64036;Laerm;50280;49.864;8.638;2022-11-25T04:41:22;49.51;46.22;56.35;;
64036;Laerm;50280;49.864;8.638;2022-11-25T04:43:58;48.87;45.04;53.41;;
64036;Laerm;50280;49.864;8.638;2022-11-25T04:46:35;48.92;44.98;55.54;;
64036;Laerm;50280;49.864;8.638;2022-11-25T04:49:10;48.94;45.48;56.08;;
64036;Laerm;50280;49.864;8.638;2022-11-25T04:51:42;49.64;46.14;56.23;;
64036;Laerm;50280;49.864;8.638;2022-11-25T04:54:15;50.98;46.81;56.06;;
64036;Laerm;50280;49.864;8.638;2022-11-25T04:56:47;49.85;46.91;54.53;;
64036;Laerm;50280;49.864;8.638;2022-11-25T04:59:21;49.73;46.60;55.63;;
64036;Laerm;50280;49.864;8.638;2022-11-25T05:01:53;49.82;45.43;56.09;;
64036;Laerm;50280;49.864;8.638;2022-11-25T05:04:26;48.28;44.37;62.52;;
64036;Laerm;50280;49.864;8.638;2022-11-25T05:06:58;48.39;44.68;56.44;;
64036;Laerm;50280;49.864;8.638;2022-11-25T05:09:30;49.23;45.58;56.31;;
64036;Laerm;50280;49.864;8.638;2022-11-25T05:12:04;49.25;46.46;55.90;;
64036;Laerm;50280;49.864;8.638;2022-11-25T05:14:39;47.24;44.05;55.42;;
64036;Laerm;50280;49.864;8.638;2022-11-25T05:17:14;47.33;44.58;55.98;;
64036;Laerm;50280;49.864;8.638;2022-11-25T05:19:49;47.11;43.96;55.59;;
64036;Laerm;50280;49.864;8.638;2022-11-25T05:22:25;46.93;44.00;56.25;;
64036;Laerm;50280;49.864;8.638;2022-11-25T05:24:59;47.34;44.67;54.72;;
64036;Laerm;50280;49.864;8.638;2022-11-25T05:27:31;48.23;43.98;61.44;;
64036;Laerm;50280;49.864;8.638;2022-11-25T05:30:07;45.75;42.30;55.11;;
64036;Laerm;50280;49.864;8.638;2022-11-25T05:32:40;47.18;43.28;55.25;;
64036;Laerm;50280;49.864;8.638;2022-11-25T05:35:13;47.90;44.25;55.37;;
64036;Laerm;50280;49.864;8.638;2022-11-25T05:37:45;47.42;44.62;55.24;;
64036;Laerm;50280;49.864;8.638;2022-11-25T05:40:18;48.51;45.08;57.74;;
64036;Laerm;50280;49.864;8.638;2022-11-25T05:42:50;48.83;45.28;56.23;;
64036;Laerm;50280;49.864;8.638;2022-11-25T05:45:24;48.66;45.30;55.37;;
64036;Laerm;50280;49.864;8.638;2022-11-25T05:47:56;48.99;45.55;54.86;;
64036;Laerm;50280;49.864;8.638;2022-11-25T05:50:28;49.71;45.72;56.50;;
64036;Laerm;50280;49.864;8.638;2022-11-25T05:53:01;50.03;47.07;55.85;;
64036;Laerm;50280;49.864;8.638;2022-11-25T05:55:33;50.50;47.54;54.47;;
64036;Laerm;50280;49.864;8.638;2022-11-25T05:58:06;50.59;47.71;62.77;;
64036;Laerm;50280;49.864;8.638;2022-11-25T06:00:42;51.79;48.31;59.25;;
64036;Laerm;50280;49.864;8.638;2022-11-25T06:03:14;51.85;48.89;56.55;;
64036;Laerm;50280;49.864;8.638;2022-11-25T06:05:46;51.41;48.59;57.34;;
64036;Laerm;50280;49.864;8.638;2022-11-25T06:08:19;51.30;48.26;57.71;;
64036;Laerm;50280;49.864;8.638;2022-11-25T06:10:52;51.88;48.68;58.25;;
64036;Laerm;50280;49.864;8.638;2022-11-25T06:13:25;51.46;48.51;59.34;;
64036;Laerm;50280;49.864;8.638;2022-11-25T06:15:58;52.14;49.27;57.17;;
64036;Laerm;50280;49.864;8.638;2022-11-25T06:18:31;52.17;49.01;64.68;;
64036;Laerm;50280;49.864;8.638;2022-11-25T06:21:05;51.84;48.75;61.02;;
64036;Laerm;50280;49.864;8.638;2022-11-25T06:23:39;51.47;47.74;62.23;;
64036;Laerm;50280;49.864;8.638;2022-11-25T06:26:14;50.85;46.98;61.87;;
64036;Laerm;50280;49.864;8.638;2022-11-25T06:28:53;51.42;48.29;58.95;;
64036;Laerm;50280;49.864;8.638;2022-11-25T06:31:28;51.14;48.28;57.23;;
64036;Laerm;50280;49.864;8.638;2022-11-25T06:34:00;51.69;48.56;57.88;;
64036;Laerm;50280;49.864;8.638;2022-11-25T06:36:33;51.77;48.51;57.58;;
64036;Laerm;50280;49.864;8.638;2022-11-25T06:39:05;51.63;47.77;59.65;;
64036;Laerm;50280;49.864;8.638;2022-11-25T06:41:38;52.87;49.23;63.06;;
64036;Laerm;50280;49.864;8.638;2022-11-25T06:44:10;52.11;48.31;59.77;;
64036;Laerm;50280;49.864;8.638;2022-11-25T06:46:44;52.03;48.50;64.94;;
64036;Laerm;50280;49.864;8.638;2022-11-25T06:49:16;52.22;48.97;63.94;;
64036;Laerm;50280;49.864;8.638;2022-11-25T06:51:49;51.81;48.78;59.24;;
64036;Laerm;50280;49.864;8.638;2022-11-25T06:54:22;52.52;49.44;67.24;;
64036;Laerm;50280;49.864;8.638;2022-11-25T06:56:55;52.76;48.90;66.28;;
64036;Laerm;50280;49.864;8.638;2022-11-25T06:59:27;51.90;48.69;62.12;;
64036;Laerm;50280;49.864;8.638;2022-11-25T07:02:01;51.79;48.69;57.69;;
64036;Laerm;50280;49.864;8.638;2022-11-25T07:04:34;53.04;49.48;63.99;;
64036;Laerm;50280;49.864;8.638;2022-11-25T07:07:07;52.52;48.84;60.75;;
64036;Laerm;50280;49.864;8.638;2022-11-25T07:09:40;51.77;47.53;61.86;;
64036;Laerm;50280;49.864;8.638;2022-11-25T07:12:12;51.47;47.69;62.71;;
64036;Laerm;50280;49.864;8.638;2022-11-25T07:14:49;51.98;48.15;61.60;;
64036;Laerm;50280;49.864;8.638;2022-11-25T07:17:23;51.51;48.51;58.91;;
64036;Laerm;50280;49.864;8.638;2022-11-25T07:19:55;51.34;48.40;62.67;;
64036;Laerm;50280;49.864;8.638;2022-11-25T07:22:27;51.71;48.41;66.05;;
64036;Laerm;50280;49.864;8.638;2022-11-25T07:25:00;51.41;48.50;58.99;;
64036;Laerm;50280;49.864;8.638;2022-11-25T07:27:32;51.96;48.39;64.01;;
64036;Laerm;50280;49.864;8.638;2022-11-25T07:30:06;51.80;48.56;57.47;;
64036;Laerm;50280;49.864;8.638;2022-11-25T07:32:41;52.60;48.77;62.25;;
64036;Laerm;50280;49.864;8.638;2022-11-25T07:35:13;51.56;48.89;62.84;;
64036;Laerm;50280;49.864;8.638;2022-11-25T07:37:45;51.38;47.79;67.18;;
64036;Laerm;50280;49.864;8.638;2022-11-25T07:40:19;51.28;47.97;63.49;;
64036;Laerm;50280;49.864;8.638;2022-11-25T07:42:51;52.33;47.94;68.77;;
64036;Laerm;50280;49.864;8.638;2022-11-25T07:45:23;52.26;48.43;60.31;;
64036;Laerm;50280;49.864;8.638;2022-11-25T07:47:57;52.12;48.71;61.54;;
64036;Laerm;50280;49.864;8.638;2022-11-25T07:50:30;51.43;48.26;61.49;;
64036;Laerm;50280;49.864;8.638;2022-11-25T07:53:03;50.65;47.11;57.71;;
64036;Laerm;50280;49.864;8.638;2022-11-25T07:55:35;51.01;48.05;57.68;;
64036;Laerm;50280;49.864;8.638;2022-11-25T07:58:08;50.80;47.58;57.96;;
64036;Laerm;50280;49.864;8.638;2022-11-25T08:00:40;52.16;48.61;64.76;;
64036;Laerm;50280;49.864;8.638;2022-11-25T08:03:14;51.42;47.68;65.46;;
64036;Laerm;50280;49.864;8.638;2022-11-25T08:05:46;50.79;47.78;59.56;;
64036;Laerm;50280;49.864;8.638;2022-11-25T08:08:19;50.57;47.46;59.86;;
64036;Laerm;50280;49.864;8.638;2022-11-25T08:10:51;54.60;47.66;81.33;;
64036;Laerm;50280;49.864;8.638;2022-11-25T08:13:24;50.78;47.21;59.45;;
64036;Laerm;50280;49.864;8.638;2022-11-25T08:15:57;50.81;47.60;60.51;;
64036;Laerm;50280;49.864;8.638;2022-11-25T08:18:32;50.48;46.84;59.44;;
64036;Laerm;50280;49.864;8.638;2022-11-25T08:21:08;50.37;46.80;58.69;;
64036;Laerm;50280;49.864;8.638;2022-11-25T08:23:43;49.67;46.34;56.18;;
64036;Laerm;50280;49.864;8.638;2022-11-25T08:26:20;50.60;46.69;67.80;;
64036;Laerm;50280;49.864;8.638;2022-11-25T08:28:56;50.03;46.06;57.65;;
64036;Laerm;50280;49.864;8.638;2022-11-25T08:31:33;49.52;46.36;58.89;;
64036;Laerm;50280;49.864;8.638;2022-11-25T08:34:16;50.03;46.41;57.32;;
64036;Laerm;50280;49.864;8.638;2022-11-25T08:36:50;49.98;46.94;62.60;;
64036;Laerm;50280;49.864;8.638;2022-11-25T08:39:23;50.13;47.12;61.27;;
64036;Laerm;50280;49.864;8.638;2022-11-25T08:41:55;50.02;47.37;58.81;;
64036;Laerm;50280;49.864;8.638;2022-11-25T08:44:28;49.90;46.57;57.47;;
64036;Laerm;50280;49.864;8.638;2022-11-25T08:47:01;49.44;46.30;55.41;;
64036;Laerm;50280;49.864;8.638;2022-11-25T08:49:35;50.84;46.61;72.85;;
64036;Laerm;50280;49.864;8.638;2022-11-25T08:52:08;49.51;46.27;58.82;;
64036;Laerm;50280;49.864;8.638;2022-11-25T08:54:41;50.14;46.18;60.98;;
64036;Laerm;50280;49.864;8.638;2022-11-25T08:57:14;50.11;46.82;60.46;;
64036;Laerm;50280;49.864;8.638;2022-11-25T08:59:46;50.95;46.20;57.46;;
64036;Laerm;50280;49.864;8.638;2022-11-25T09:02:19;50.42;47.07;56.57;;
64036;Laerm;50280;49.864;8.638;2022-11-25T09:04:52;49.92;46.59;54.77;;
64036;Laerm;50280;49.864;8.638;2022-11-25T09:07:25;50.78;46.92;62.57;;
64036;Laerm;50280;49.864;8.638;2022-11-25T09:09:58;51.90;47.45;63.15;;
64036;Laerm;50280;49.864;8.638;2022-11-25T09:12:30;53.24;48.13;72.18;;
64036;Laerm;50280;49.864;8.638;2022-11-25T09:15:04;52.48;47.68;65.07;;
64036;Laerm;50280;49.864;8.638;2022-11-25T09:17:37;52.52;47.35;67.15;;
64036;Laerm;50280;49.864;8.638;2022-11-25T09:20:11;51.83;46.28;68.10;;
64036;Laerm;50280;49.864;8.638;2022-11-25T09:22:44;51.01;46.44;66.73;;
64036;Laerm;50280;49.864;8.638;2022-11-25T09:25:16;49.74;46.13;60.90;;
64036;Laerm;50280;49.864;8.638;2022-11-25T09:27:49;49.51;45.65;58.61;;
64036;Laerm;50280;49.864;8.638;2022-11-25T09:30:22;50.11;46.48;56.43;;
64036;Laerm;50280;49.864;8.638;2022-11-25T09:32:55;50.75;47.75;62.58;;
64036;Laerm;50280;49.864;8.638;2022-11-25T09:35:29;50.97;47.66;59.14;;
64036;Laerm;50280;49.864;8.638;2022-11-25T09:38:01;49.99;45.29;60.47;;
64036;Laerm;50280;49.864;8.638;2022-11-25T09:40:44;49.45;45.84;58.09;;
64036;Laerm;50280;49.864;8.638;2022-11-25T09:43:41;49.57;45.95;59.95;;
64036;Laerm;50280;49.864;8.638;2022-11-25T09:46:36;49.71;45.69;62.67;;
64036;Laerm;50280;49.864;8.638;2022-11-25T09:49:43;49.02;45.29;61.58;;
64036;Laerm;50280;49.864;8.638;2022-11-25T09:52:41;49.05;44.69;58.13;;
64036;Laerm;50280;49.864;8.638;2022-11-25T09:55:24;50.17;45.93;60.83;;
64036;Laerm;50280;49.864;8.638;2022-11-25T09:58:14;50.22;46.18;57.29;;
64036;Laerm;50280;49.864;8.638;2022-11-25T10:00:57;48.72;44.09;63.79;;
64036;Laerm;50280;49.864;8.638;2022-11-25T10:03:38;49.59;44.96;59.80;;
64036;Laerm;50280;49.864;8.638;2022-11-25T10:06:19;49.52;45.19;65.42;;
64036;Laerm;50280;49.864;8.638;2022-11-25T10:08:58;49.22;45.33;56.97;;
64036;Laerm;50280;49.864;8.638;2022-11-25T10:11:46;48.95;44.94;60.96;;
64036;Laerm;50280;49.864;8.638;2022-11-25T10:14:30;48.27;44.91;57.70;;
64036;Laerm;50280;49.864;8.638;2022-11-25T10:17:17;49.61;45.50;61.35;;
64036;Laerm;50280;49.864;8.638;2022-11-25T10:20:10;49.36;45.41;70.20;;
64036;Laerm;50280;49.864;8.638;2022-11-25T10:22:48;48.95;45.02;60.25;;
64036;Laerm;50280;49.864;8.638;2022-11-25T10:25:28;49.18;45.19;58.99;;
64036;Laerm;50280;49.864;8.638;2022-11-25T10:28:09;50.16;45.76;58.16;;
64036;Laerm;50280;49.864;8.638;2022-11-25T10:30:59;48.65;45.26;64.60;;
64036;Laerm;50280;49.864;8.638;2022-11-25T10:33:42;49.09;45.22;62.37;;
64036;Laerm;50280;49.864;8.638;2022-11-25T10:36:20;48.85;44.33;64.69;;
64036;Laerm;50280;49.864;8.638;2022-11-25T10:39:01;47.67;44.19;61.21;;
64036;Laerm;50280;49.864;8.638;2022-11-25T10:41:50;48.34;44.53;59.89;;
64036;Laerm;50280;49.864;8.638;2022-11-25T10:44:29;52.24;45.10;69.28;;
64036;Laerm;50280;49.864;8.638;2022-11-25T10:47:20;49.05;44.79;57.65;;
64036;Laerm;50280;49.864;8.638;2022-11-25T10:50:15;49.30;44.97;62.70;;
64036;Laerm;50280;49.864;8.638;2022-11-25T10:52:57;48.57;44.87;61.04;;
64036;Laerm;50280;49.864;8.638;2022-11-25T10:55:34;49.79;44.77;58.58;;
64036;Laerm;50280;49.864;8.638;2022-11-25T10:58:30;49.74;46.17;62.27;;
64036;Laerm;50280;49.864;8.638;2022-11-25T11:01:20;49.48;45.39;57.29;;
64036;Laerm;50280;49.864;8.638;2022-11-25T11:04:05;51.91;46.10;65.10;;
64036;Laerm;50280;49.864;8.638;2022-11-25T11:06:48;48.91;43.99;67.30;;
64036;Laerm;50280;49.864;8.638;2022-11-25T11:09:32;49.18;45.92;57.50;;
64036;Laerm;50280;49.864;8.638;2022-11-25T11:12:14;49.75;46.07;65.59;;
64036;Laerm;50280;49.864;8.638;2022-11-25T11:15:17;57.06;46.27;66.33;;
64036;Laerm;50280;49.864;8.638;2022-11-25T11:17:54;51.58;47.21;58.04;;
64036;Laerm;50280;49.864;8.638;2022-11-25T11:20:29;51.39;46.76;59.00;;
64036;Laerm;50280;49.864;8.638;2022-11-25T11:23:11;48.69;44.83;55.49;;
64036;Laerm;50280;49.864;8.638;2022-11-25T11:25:58;48.63;45.61;58.03;;
64036;Laerm;50280;49.864;8.638;2022-11-25T11:28:39;48.84;45.43;58.05;;
64036;Laerm;50280;49.864;8.638;2022-11-25T11:31:19;49.27;46.03;59.22;;
64036;Laerm;50280;49.864;8.638;2022-11-25T11:34:02;48.87;45.64;55.65;;
64036;Laerm;50280;49.864;8.638;2022-11-25T11:37:18;48.53;44.90;67.12;;
64036;Laerm;50280;49.864;8.638;2022-11-25T11:40:18;48.95;45.42;59.23;;
64036;Laerm;50280;49.864;8.638;2022-11-25T11:43:05;48.71;44.85;62.52;;
64036;Laerm;50280;49.864;8.638;2022-11-25T11:46:07;48.34;44.68;60.72;;
64036;Laerm;50280;49.864;8.638;2022-11-25T11:49:02;48.43;45.00;56.02;;
64036;Laerm;50280;49.864;8.638;2022-11-25T11:52:04;47.89;44.16;60.16;;
64036;Laerm;50280;49.864;8.638;2022-11-25T11:54:45;49.56;44.82;58.52;;
64036;Laerm;50280;49.864;8.638;2022-11-25T11:57:34;48.54;44.58;58.49;;
64036;Laerm;50280;49.864;8.638;2022-11-25T12:00:18;49.17;45.56;57.55;;
64036;Laerm;50280;49.864;8.638;2022-11-25T12:03:01;48.67;45.36;57.92;;
64036;Laerm;50280;49.864;8.638;2022-11-25T12:05:44;49.70;44.84;56.82;;
64036;Laerm;50280;49.864;8.638;2022-11-25T12:08:27;48.35;45.13;55.78;;
64036;Laerm;50280;49.864;8.638;2022-11-25T12:11:11;48.23;44.85;57.44;;
64036;Laerm;50280;49.864;8.638;2022-11-25T12:13:55;49.41;45.13;60.55;;
64036;Laerm;50280;49.864;8.638;2022-11-25T12:16:42;48.57;45.17;56.82;;
64036;Laerm;50280;49.864;8.638;2022-11-25T12:19:28;48.52;45.01;62.36;;
64036;Laerm;50280;49.864;8.638;2022-11-25T12:22:17;50.09;45.02;66.31;;
64036;Laerm;50280;49.864;8.638;2022-11-25T12:25:07;49.77;45.08;64.88;;
64036;Laerm;50280;49.864;8.638;2022-11-25T12:27:52;49.00;45.09;59.19;;
64036;Laerm;50280;49.864;8.638;2022-11-25T12:30:37;49.03;44.25;64.28;;
64036;Laerm;50280;49.864;8.638;2022-11-25T12:33:21;48.09;44.27;64.26;;
64036;Laerm;50280;49.864;8.638;2022-11-25T12:36:03;47.30;43.70;57.08;;
64036;Laerm;50280;49.864;8.638;2022-11-25T12:38:52;47.73;43.74;64.07;;
64036;Laerm;50280;49.864;8.638;2022-11-25T12:41:38;48.59;44.52;59.83;;
64036;Laerm;50280;49.864;8.638;2022-11-25T12:44:18;47.80;44.10;61.78;;
64036;Laerm;50280;49.864;8.638;2022-11-25T12:46:57;48.29;44.52;63.06;;
64036;Laerm;50280;49.864;8.638;2022-11-25T12:49:39;51.62;44.05;73.11;;
64036;Laerm;50280;49.864;8.638;2022-11-25T12:52:41;48.69;43.77;66.48;;
64036;Laerm;50280;49.864;8.638;2022-11-25T12:55:26;48.18;43.56;57.46;;
64036;Laerm;50280;49.864;8.638;2022-11-25T12:58:43;46.68;43.50;57.10;;
64036;Laerm;50280;49.864;8.638;2022-11-25T13:01:51;52.76;44.69;74.55;;
64036;Laerm;50280;49.864;8.638;2022-11-25T13:04:57;48.28;44.31;56.09;;
64036;Laerm;50280;49.864;8.638;2022-11-25T13:08:12;48.27;44.66;66.33;;
64036;Laerm;50280;49.864;8.638;2022-11-25T13:11:28;48.15;44.00;60.07;;
64036;Laerm;50280;49.864;8.638;2022-11-25T13:14:38;47.83;43.55;66.31;;
64036;Laerm;50280;49.864;8.638;2022-11-25T13:17:42;46.30;42.53;60.26;;
64036;Laerm;50280;49.864;8.638;2022-11-25T13:20:41;55.36;43.91;74.29;;
64036;Laerm;50280;49.864;8.638;2022-11-25T13:23:37;53.74;43.58;61.50;;
64036;Laerm;50280;49.864;8.638;2022-11-25T13:26:45;51.97;42.56;63.21;;
64036;Laerm;50280;49.864;8.638;2022-11-25T13:29:58;70.14;42.14;83.93;;
64036;Laerm;50280;49.864;8.638;2022-11-25T13:32:39;45.36;41.57;65.66;;
64036;Laerm;50280;49.864;8.638;2022-11-25T13:35:47;45.94;41.97;57.82;;
64036;Laerm;50280;49.864;8.638;2022-11-25T13:38:56;48.59;43.00;60.38;;
64036;Laerm;50280;49.864;8.638;2022-11-25T13:41:48;50.12;42.88;60.87;;
64036;Laerm;50280;49.864;8.638;2022-11-25T13:44:33;54.95;42.38;64.91;;
64036;Laerm;50280;49.864;8.638;2022-11-25T13:47:33;53.74;42.88;64.60;;
64036;Laerm;50280;49.864;8.638;2022-11-25T13:50:21;49.85;43.52;62.80;;
64036;Laerm;50280;49.864;8.638;2022-11-25T13:52:58;52.61;44.69;65.19;;
64036;Laerm;50280;49.864;8.638;2022-11-25T13:55:37;48.27;43.33;64.84;;
64036;Laerm;50280;49.864;8.638;2022-11-25T13:58:19;49.98;42.67;63.97;;
64036;Laerm;50280;49.864;8.638;2022-11-25T14:01:04;46.64;43.18;56.35;;
64036;Laerm;50280;49.864;8.638;2022-11-25T14:03:56;47.89;42.98;58.80;;
64036;Laerm;50280;49.864;8.638;2022-11-25T14:07:18;46.52;42.70;61.09;;
64036;Laerm;50280;49.864;8.638;2022-11-25T14:10:25;45.68;41.92;56.72;;
64036;Laerm;50280;49.864;8.638;2022-11-25T14:13:39;46.57;42.12;61.81;;
64036;Laerm;50280;49.864;8.638;2022-11-25T14:16:44;46.04;42.39;61.48;;
64036;Laerm;50280;49.864;8.638;2022-11-25T14:23:40;46.41;41.81;61.41;;
64036;Laerm;50280;49.864;8.638;2022-11-25T14:26:27;52.60;42.64;81.31;;
64036;Laerm;50280;49.864;8.638;2022-11-25T14:29:12;45.50;41.75;58.49;;
64036;Laerm;50280;49.864;8.638;2022-11-25T14:31:56;45.97;41.73;59.04;;
64036;Laerm;50280;49.864;8.638;2022-11-25T14:34:38;46.46;41.35;61.72;;
64036;Laerm;50280;49.864;8.638;2022-11-25T14:37:19;47.82;42.26;68.63;;
64036;Laerm;50280;49.864;8.638;2022-11-25T14:39:58;46.75;41.93;61.43;;
64036;Laerm;50280;49.864;8.638;2022-11-25T14:42:42;46.16;42.27;56.37;;
64036;Laerm;50280;49.864;8.638;2022-11-25T14:45:26;46.58;42.27;57.06;;
64036;Laerm;50280;49.864;8.638;2022-11-25T14:48:13;48.20;43.36;69.69;;
64036;Laerm;50280;49.864;8.638;2022-11-25T14:50:54;47.77;42.61;57.23;;
64036;Laerm;50280;49.864;8.638;2022-11-25T14:53:29;48.38;43.49;61.83;;